Time;durP1;ratioP1;P1;durP2;ratioP2;P2;SDS_P1;SDS_P2;PMS_P1;PMS_P2;Temp;Humidity;BMP_temperature;BMP_pressure;BME280_temperature;BME280_humidity;BME280_pressure;Samples;Min_cycle;Max_cycle;Signal;HPM_P1;HPM_P2
2021/04/08 00:00:19;;;;;;;5.25;2.30;;;1.40;82.80;;;;;;5072048;28;20477;-75
2021/04/08 00:02:45;;;;;;;4.25;2.42;;;1.50;82.60;;;;;;5071258;28;20016;-74
2021/04/08 00:05:12;;;;;;;2.67;1.77;;;1.40;82.60;;;;;;5072685;28;20419;-74
2021/04/08 00:07:39;;;;;;;4.10;2.55;;;1.30;84.30;;;;;;5072769;28;20380;-75
2021/04/08 00:10:06;;;;;;;3.35;2.13;;;1.30;84.40;;;;;;5072576;28;20036;-74
2021/04/08 00:12:32;;;;;;;4.88;2.50;;;1.30;84.90;;;;;;5071741;28;20039;-75
2021/04/08 00:14:58;;;;;;;5.97;3.10;;;1.30;85.10;;;;;;5072313;28;20380;-74
2021/04/08 00:17:24;;;;;;;4.50;2.50;;;1.10;84.60;;;;;;5071940;28;20033;-75
2021/04/08 00:19:49;;;;;;;10.13;2.63;;;1.00;84.90;;;;;;5072205;28;20552;-75
2021/04/08 00:22:15;;;;;;;4.32;3.08;;;1.20;84.70;;;;;;5072097;28;20392;-74
2021/04/08 00:24:41;;;;;;;7.22;2.90;;;1.30;83.10;;;;;;5071854;28;20105;-74
2021/04/08 00:27:07;;;;;;;6.47;3.33;;;1.10;85.10;;;;;;5072065;28;20051;-75
2021/04/08 00:29:33;;;;;;;5.10;3.28;;;1.10;85.40;;;;;;5071994;28;20032;-74
2021/04/08 00:31:58;;;;;;;4.70;3.20;;;0.70;86.60;;;;;;5072036;28;20115;-74
2021/04/08 00:34:24;;;;;;;4.20;3.10;;;0.70;88.20;;;;;;5072248;28;20112;-75
2021/04/08 00:36:50;;;;;;;3.97;3.20;;;0.50;88.70;;;;;;5068143;28;20404;-74
2021/04/08 00:39:15;;;;;;;4.38;2.80;;;0.60;88.50;;;;;;5057817;28;20043;-75
2021/04/08 00:41:42;;;;;;;6.70;3.40;;;0.60;87.90;;;;;;5070783;28;20029;-75
2021/04/08 00:44:08;;;;;;;5.78;3.67;;;0.60;88.00;;;;;;5072132;28;20484;-75
2021/04/08 00:46:34;;;;;;;7.13;4.35;;;0.60;87.70;;;;;;5053989;28;20090;-75
2021/04/08 00:48:59;;;;;;;7.15;4.38;;;0.80;87.40;;;;;;5056594;28;20086;-74
2021/04/08 00:51:26;;;;;;;5.95;3.90;;;0.70;87.10;;;;;;5071977;28;20408;-74
2021/04/08 00:53:53;;;;;;;6.78;3.63;;;0.70;88.00;;;;;;5071432;28;20380;-75
2021/04/08 00:56:23;;;;;;;12.27;8.18;;;0.70;87.60;;;;;;5071679;28;20035;-74
2021/04/08 00:58:50;;;;;;;23.00;12.60;;;0.70;87.40;;;;;;5053358;28;20035;-75
2021/04/08 01:01:16;;;;;;;17.30;10.35;;;0.60;86.90;;;;;;5066100;28;20033;-75
2021/04/08 01:03:42;;;;;;;13.98;8.57;;;0.70;87.00;;;;;;5061378;28;20026;-74
2021/04/08 01:06:08;;;;;;;9.25;6.18;;;0.70;88.50;;;;;;5059096;28;20551;-75
2021/04/08 01:08:36;;;;;;;11.07;6.95;;;0.60;87.10;;;;;;5070045;28;20138;-75
2021/04/08 01:11:02;;;;;;;13.45;7.90;;;0.50;89.10;;;;;;5059967;28;20035;-75
2021/04/08 01:13:29;;;;;;;13.65;7.72;;;0.50;89.50;;;;;;5068298;28;20029;-75
2021/04/08 01:15:59;;;;;;;12.18;7.35;;;0.70;88.50;;;;;;5066756;28;20028;-75
2021/04/08 01:18:51;;;;;;;12.75;8.07;;;0.70;87.90;;;;;;5061167;28;20055;-74
2021/04/08 01:21:35;;;;;;;15.43;8.55;;;0.50;88.70;;;;;;5077101;28;20024;-74
2021/04/08 01:24:22;;;;;;;12.40;8.05;;;0.50;88.70;;;;;;5075674;28;20380;-74
2021/04/08 01:27:13;;;;;;;9.30;5.65;;;0.40;88.40;;;;;;5066178;28;20416;-74
2021/04/08 01:30:00;;;;;;;3.75;2.88;;;-0.10;90.20;;;;;;5063768;28;20082;-75
2021/04/08 01:32:28;;;;;;;6.10;2.95;;;-0.40;91.40;;;;;;5075617;28;20028;-74
2021/04/08 01:34:58;;;;;;;6.38;4.47;;;0.10;91.50;;;;;;5074727;28;20115;-75
2021/04/08 01:37:31;;;;;;;5.30;3.75;;;0.40;88.60;;;;;;5069431;28;20500;-74
2021/04/08 01:39:59;;;;;;;7.80;3.33;;;0.20;89.30;;;;;;5065889;28;20029;-74
2021/04/08 01:42:26;;;;;;;7.47;4.28;;;-0.10;90.20;;;;;;5075331;28;20085;-74
2021/04/08 01:44:56;;;;;;;5.57;3.92;;;-0.30;90.40;;;;;;5073227;28;20032;-75
2021/04/08 01:47:25;;;;;;;7.95;5.75;;;-0.40;91.20;;;;;;5055606;28;20021;-75
2021/04/08 01:49:52;;;;;;;14.10;6.53;;;-0.40;91.30;;;;;;5064789;28;20138;-75
2021/04/08 01:52:21;;;;;;;9.57;6.95;;;-0.10;91.50;;;;;;5075300;28;20034;-75
2021/04/08 01:54:52;;;;;;;9.02;6.55;;;0.00;90.80;;;;;;5074926;28;20024;-75
2021/04/08 01:57:21;;;;;;;8.25;5.97;;;0.10;91.00;;;;;;5059277;28;20025;-75
2021/04/08 01:59:47;;;;;;;10.23;5.93;;;0.20;90.50;;;;;;5075078;28;20073;-74
2021/04/08 02:02:13;;;;;;;10.73;6.10;;;0.00;90.60;;;;;;5075111;28;20047;-75
2021/04/08 02:04:40;;;;;;;11.15;7.18;;;0.10;90.80;;;;;;5074813;28;20039;-75
2021/04/08 02:07:07;;;;;;;11.35;6.50;;;-0.10;90.70;;;;;;5074192;28;20020;-75
2021/04/08 02:09:37;;;;;;;10.10;6.63;;;0.00;91.30;;;;;;5074898;28;20384;-75
2021/04/08 02:12:04;;;;;;;12.05;6.93;;;0.00;90.70;;;;;;5074511;28;20033;-74
2021/04/08 02:14:30;;;;;;;16.58;7.25;;;-0.10;91.00;;;;;;5074735;28;20020;-75
2021/04/08 02:16:57;;;;;;;12.60;6.15;;;-0.30;91.20;;;;;;5073907;28;20035;-75
2021/04/08 02:19:24;;;;;;;10.18;6.07;;;-0.30;91.80;;;;;;5074346;28;20043;-75
2021/04/08 02:21:51;;;;;;;8.65;3.95;;;0.00;91.50;;;;;;5074476;28;20122;-74
2021/04/08 02:24:19;;;;;;;7.90;3.55;;;0.20;91.40;;;;;;5073090;28;20388;-75
2021/04/08 02:26:46;;;;;;;9.18;4.57;;;0.30;91.30;;;;;;5073707;28;20056;-75
2021/04/08 02:29:14;;;;;;;5.90;3.85;;;0.10;91.20;;;;;;5074005;28;20032;-75
2021/04/08 02:31:42;;;;;;;7.65;3.50;;;0.00;90.40;;;;;;5073204;28;20024;-75
2021/04/08 02:34:09;;;;;;;9.18;4.00;;;0.00;90.90;;;;;;5074097;28;20056;-75
2021/04/08 02:36:41;;;;;;;7.47;3.60;;;0.10;91.00;;;;;;5074450;28;20503;-75
2021/04/08 02:39:10;;;;;;;4.30;3.38;;;0.20;89.60;;;;;;5073457;28;20029;-75
2021/04/08 02:41:44;;;;;;;4.50;2.80;;;-0.10;90.30;;;;;;5073888;28;20030;-75
2021/04/08 02:44:10;;;;;;;6.70;4.28;;;-0.30;91.10;;;;;;5063678;28;20397;-74
2021/04/08 02:46:35;;;;;;;9.43;5.47;;;-0.50;91.60;;;;;;5067905;28;20028;-74
2021/04/08 02:49:02;;;;;;;14.40;6.45;;;-0.40;91.70;;;;;;5073525;28;20032;-75
2021/04/08 02:51:53;;;;;;;11.45;6.13;;;-0.40;92.00;;;;;;5074023;28;20029;-74
2021/04/08 02:54:47;;;;;;;13.07;5.15;;;-0.20;91.90;;;;;;5073877;28;20020;-75
2021/04/08 02:57:21;;;;;;;5.45;3.33;;;-0.10;91.20;;;;;;5073963;28;20032;-75
2021/04/08 02:59:56;;;;;;;6.90;3.60;;;-0.10;91.40;;;;;;5068021;28;20025;-74
2021/04/08 03:02:29;;;;;;;4.75;2.92;;;-0.20;91.20;;;;;;5064848;28;20029;-75
2021/04/08 03:04:58;;;;;;;5.80;3.35;;;0.00;91.10;;;;;;5058577;28;20033;-74
2021/04/08 03:07:32;;;;;;;10.32;3.38;;;0.00;91.90;;;;;;5070186;28;20171;-74
2021/04/08 03:10:02;;;;;;;6.78;3.67;;;-0.10;91.40;;;;;;5060935;28;20384;-74
2021/04/08 03:12:30;;;;;;;;;;;-0.20;91.10;;;;;;5062826;28;20504;-74
2021/04/08 03:14:57;;;;;;;7.65;3.50;;;-0.40;91.10;;;;;;5068887;28;19908;-75
2021/04/08 03:17:27;;;;;;;7.43;3.50;;;-0.40;92.20;;;;;;5073832;28;20029;-74
2021/04/08 03:19:53;;;;;;;;;;;-0.40;92.20;;;;;;5074136;28;20115;-75
2021/04/08 03:22:23;;;;;;;5.72;2.97;;;-0.40;92.00;;;;;;5073410;28;19911;-75
2021/04/08 03:24:55;;;;;;;5.45;2.83;;;-0.40;91.90;;;;;;5058022;28;20485;-74
2021/04/08 03:27:26;;;;;;;4.22;2.60;;;-0.40;91.90;;;;;;5069566;28;20457;-75
2021/04/08 03:29:52;;;;;;;5.60;2.53;;;-0.40;92.30;;;;;;5059419;28;20027;-74
2021/04/08 03:32:19;;;;;;;3.67;1.80;;;-0.30;92.70;;;;;;5063762;28;20374;-75
2021/04/08 03:34:45;;;;;;;4.32;2.88;;;-0.40;92.80;;;;;;5066245;28;20349;-74
2021/04/08 03:37:12;;;;;;;4.75;2.97;;;-0.40;92.90;;;;;;5072558;28;20158;-75
2021/04/08 03:39:39;;;;;;;4.75;2.67;;;-0.50;91.00;;;;;;5053535;28;20091;-75
2021/04/08 03:42:06;;;;;;;7.40;3.10;;;-0.70;91.70;;;;;;5060327;28;20016;-74
2021/04/08 03:44:33;;;;;;;10.13;4.45;;;-0.90;92.30;;;;;;5071929;28;20020;-75
2021/04/08 03:46:59;;;;;;;4.85;2.97;;;-0.90;93.00;;;;;;5058630;28;20021;-75
2021/04/08 03:49:27;;;;;;;3.03;2.08;;;-0.70;93.40;;;;;;5069502;28;20056;-75
2021/04/08 03:51:54;;;;;;;5.75;3.75;;;-0.50;93.30;;;;;;5058399;28;20013;-75
2021/04/08 03:54:21;;;;;;;7.78;2.60;;;-0.30;92.30;;;;;;5063487;28;20021;-74
2021/04/08 03:56:49;;;;;;;4.15;2.88;;;-0.40;91.40;;;;;;5065614;28;20017;-75
2021/04/08 03:59:17;;;;;;;5.65;3.00;;;-0.70;90.80;;;;;;5056411;28;20116;-75
2021/04/08 04:01:44;;;;;;;11.90;5.60;;;-1.00;93.00;;;;;;5069232;28;20028;-75
2021/04/08 04:04:10;;;;;;;14.38;7.20;;;-1.00;93.80;;;;;;5060086;28;20384;-75
2021/04/08 04:06:37;;;;;;;8.98;5.60;;;-0.80;93.70;;;;;;5060497;28;20021;-75
2021/04/08 04:09:05;;;;;;;9.50;4.18;;;-0.70;93.40;;;;;;5066985;28;20043;-75
2021/04/08 04:11:37;;;;;;;11.80;5.60;;;-0.60;92.90;;;;;;5054454;28;20032;-75
2021/04/08 04:14:06;;;;;;;15.48;7.65;;;-0.40;92.80;;;;;;5066474;28;20021;-75
2021/04/08 04:16:32;;;;;;;20.88;10.27;;;-0.30;92.90;;;;;;5060787;28;20029;-75
2021/04/08 04:18:58;;;;;;;13.95;8.32;;;-0.20;92.00;;;;;;5060610;28;20525;-74
2021/04/08 04:21:24;;;;;;;15.93;8.05;;;-0.30;91.30;;;;;;5059180;28;20021;-74
2021/04/08 04:23:49;;;;;;;19.35;8.90;;;-0.70;91.40;;;;;;5063736;28;20028;-75
2021/04/08 04:26:15;;;;;;;24.50;12.73;;;-0.80;92.80;;;;;;5063736;28;20036;-77
2021/04/08 04:28:41;;;;;;;20.98;10.20;;;-0.80;92.10;;;;;;5061152;28;20294;-77
2021/04/08 04:31:07;;;;;;;16.13;8.00;;;-1.00;92.70;;;;;;5060424;28;20047;-77
2021/04/08 04:33:32;;;;;;;16.00;8.52;;;-0.90;93.40;;;;;;5060419;28;20040;-77
2021/04/08 04:35:58;;;;;;;13.77;8.00;;;-0.70;93.10;;;;;;5065105;28;20547;-77
2021/04/08 04:38:24;;;;;;;21.63;10.82;;;-0.70;93.10;;;;;;5071778;28;20039;-77
2021/04/08 04:40:50;;;;;;;21.33;13.05;;;-0.60;93.00;;;;;;5055285;28;20499;-77
2021/04/08 04:43:16;;;;;;;20.83;10.38;;;-0.80;92.00;;;;;;5071354;28;20028;-77
2021/04/08 04:45:41;;;;;;;25.77;10.73;;;-1.00;92.90;;;;;;5055306;28;20560;-77
2021/04/08 04:48:10;;;;;;;12.05;6.38;;;-1.20;93.30;;;;;;5066919;28;20055;-77
2021/04/08 04:50:37;;;;;;;14.95;7.22;;;-1.30;93.60;;;;;;5061291;28;20024;-77
2021/04/08 04:53:03;;;;;;;15.27;6.57;;;-1.30;94.40;;;;;;5058657;28;20115;-77
2021/04/08 04:55:29;;;;;;;14.60;8.60;;;-1.10;95.50;;;;;;5068367;28;20024;-77
2021/04/08 04:57:54;;;;;;;14.70;6.82;;;-1.00;93.30;;;;;;5071520;28;20027;-77
2021/04/08 05:00:21;;;;;;;7.50;4.05;;;-1.00;92.80;;;;;;5066618;28;20033;-77
2021/04/08 05:02:46;;;;;;;13.30;7.60;;;-1.50;93.40;;;;;;5074861;28;20051;-75
2021/04/08 05:05:13;;;;;;;17.90;9.23;;;-1.50;93.40;;;;;;5068007;28;20064;-75
2021/04/08 05:07:39;;;;;;;18.67;9.90;;;-1.30;93.90;;;;;;5067342;28;20472;-74
2021/04/08 05:10:05;;;;;;;16.77;8.93;;;-1.30;94.10;;;;;;5063316;28;20056;-74
2021/04/08 05:12:31;;;;;;;10.50;5.18;;;-1.30;94.50;;;;;;5071259;28;20075;-74
2021/04/08 05:14:56;;;;;;;12.02;5.72;;;-1.20;95.60;;;;;;5065990;28;20055;-74
2021/04/08 05:17:22;;;;;;;6.45;3.83;;;-1.10;95.20;;;;;;5065854;28;20115;-75
2021/04/08 05:19:48;;;;;;;11.25;4.95;;;-1.30;94.50;;;;;;5071122;28;20424;-74
2021/04/08 05:22:14;;;;;;;16.02;7.88;;;-1.40;95.60;;;;;;5071942;28;20050;-74
2021/04/08 05:24:39;;;;;;;17.35;9.35;;;-1.30;95.20;;;;;;5055278;28;20040;-74
2021/04/08 05:27:06;;;;;;;20.23;11.02;;;-1.30;94.70;;;;;;5063616;28;20040;-75
2021/04/08 05:29:31;;;;;;;16.95;9.98;;;-1.20;94.60;;;;;;5072961;28;20039;-74
2021/04/08 05:31:57;;;;;;;19.23;11.15;;;-1.20;94.70;;;;;;5070221;28;20028;-71
2021/04/08 05:34:23;;;;;;;19.40;10.35;;;-1.20;94.80;;;;;;5071488;28;20060;-71
2021/04/08 05:36:48;;;;;;;20.83;11.38;;;-1.00;95.30;;;;;;5068856;28;20063;-74
2021/04/08 05:39:14;;;;;;;15.02;8.90;;;-0.90;94.70;;;;;;5067134;28;20029;-74
2021/04/08 05:41:40;;;;;;;40.03;22.10;;;-1.20;94.00;;;;;;5058302;28;20048;-74
2021/04/08 05:44:06;;;;;;;35.38;19.60;;;-1.20;95.50;;;;;;5059815;28;20029;-74
2021/04/08 05:46:31;;;;;;;33.60;15.27;;;-1.00;95.40;;;;;;5052932;28;20013;-71
2021/04/08 05:48:57;;;;;;;33.90;17.25;;;-0.90;94.70;;;;;;5066229;28;20055;-71
2021/04/08 05:51:23;;;;;;;46.28;21.10;;;-0.90;93.80;;;;;;5053990;28;20037;-71
2021/04/08 05:53:49;;;;;;;25.58;11.45;;;-0.80;93.90;;;;;;5053525;28;20116;-71
2021/04/08 05:56:15;;;;;;;22.45;10.38;;;-0.70;93.90;;;;;;5068659;28;20037;-71
2021/04/08 05:58:40;;;;;;;25.40;12.00;;;-0.90;93.80;;;;;;5061716;28;21556;-71
2021/04/08 06:01:07;;;;;;;28.73;14.20;;;-1.10;94.10;;;;;;5068763;28;21212;-72
2021/04/08 06:03:34;;;;;;;34.97;15.45;;;-1.10;95.20;;;;;;5063718;28;20116;-71
2021/04/08 06:06:02;;;;;;;33.80;16.83;;;-0.80;94.20;;;;;;5065023;28;20107;-74
2021/04/08 06:08:30;;;;;;;19.58;9.40;;;-0.60;94.90;;;;;;5055904;28;20366;-74
2021/04/08 06:10:56;;;;;;;23.10;10.88;;;-0.30;94.10;;;;;;5063026;28;20028;-74
2021/04/08 06:13:22;;;;;;;29.25;16.15;;;-0.10;93.90;;;;;;5068060;28;20047;-74
2021/04/08 06:15:48;;;;;;;27.38;12.57;;;0.00;93.50;;;;;;5073542;28;20227;-71
2021/04/08 06:18:14;;;;;;;13.85;4.80;;;0.10;93.20;;;;;;5070941;28;20029;-71
2021/04/08 06:20:40;;;;;;;11.88;4.55;;;0.20;92.40;;;;;;5075408;28;20438;-71
2021/04/08 06:23:06;;;;;;;6.72;3.20;;;0.30;92.40;;;;;;5073027;28;20028;-71
2021/04/08 06:25:33;;;;;;;4.63;2.60;;;0.40;92.50;;;;;;5071195;28;20396;-71
2021/04/08 06:27:59;;;;;;;12.10;4.65;;;0.40;91.80;;;;;;5063338;28;20431;-72
2021/04/08 06:30:26;;;;;;;9.98;4.55;;;0.20;92.60;;;;;;5074269;28;20017;-71
2021/04/08 06:32:54;;;;;;;9.43;5.32;;;0.20;92.50;;;;;;5066864;28;20092;-71
2021/04/08 06:35:21;;;;;;;6.68;3.72;;;0.20;93.10;;;;;;5067589;28;20032;-71
2021/04/08 06:37:50;;;;;;;7.47;4.15;;;0.30;93.20;;;;;;5058451;28;20032;-71
2021/04/08 06:40:21;;;;;;;6.80;2.70;;;0.40;93.50;;;;;;5064675;28;20029;-72
2021/04/08 06:42:48;;;;;;;6.00;2.35;;;0.60;93.90;;;;;;5069310;28;20063;-71
2021/04/08 06:45:15;;;;;;;6.60;2.72;;;0.70;93.60;;;;;;5067764;28;20470;-72
2021/04/08 06:48:05;;;;;;;3.95;2.20;;;0.90;92.70;;;;;;5069489;28;20069;-72
2021/04/08 06:50:38;;;;;;;4.40;2.28;;;1.00;93.00;;;;;;5066386;28;20096;-71
2021/04/08 06:53:06;;;;;;;6.05;2.10;;;1.10;92.60;;;;;;5072508;28;20020;-71
2021/04/08 06:55:33;;;;;;;6.15;3.15;;;1.40;91.60;;;;;;5070912;28;20032;-71
2021/04/08 06:58:02;;;;;;;10.38;2.30;;;1.70;91.50;;;;;;5068817;28;20024;-72
2021/04/08 07:00:28;;;;;;;8.40;2.47;;;1.80;91.20;;;;;;5059022;28;20404;-71
2021/04/08 07:02:54;;;;;;;5.13;2.00;;;2.10;91.40;;;;;;5063924;28;20027;-72
2021/04/08 07:05:20;;;;;;;5.32;2.90;;;2.20;91.00;;;;;;5061588;28;20488;-72
2021/04/08 07:07:46;;;;;;;4.50;2.47;;;2.30;91.00;;;;;;5071869;28;20020;-72
2021/04/08 07:10:12;;;;;;;2.92;1.58;;;2.30;90.90;;;;;;5071868;28;20032;-72
2021/04/08 07:12:38;;;;;;;3.80;2.08;;;2.30;88.40;;;;;;5069566;28;20032;-72
2021/04/08 07:15:05;;;;;;;15.20;4.13;;;2.40;89.30;;;;;;5059481;28;20087;-71
2021/04/08 07:17:31;;;;;;;6.15;1.95;;;2.50;88.90;;;;;;5068498;28;20410;-71
2021/04/08 07:19:58;;;;;;;11.13;2.47;;;2.80;88.00;;;;;;5064302;28;20029;-71
2021/04/08 07:22:25;;;;;;;5.32;2.25;;;2.80;86.50;;;;;;5068841;28;20024;-71
2021/04/08 07:24:51;;;;;;;3.28;2.38;;;3.00;85.10;;;;;;5070713;28;20031;-71
2021/04/08 07:27:25;;;;;;;10.48;2.20;;;3.10;86.00;;;;;;5065560;28;20040;-71
2021/04/08 07:29:52;;;;;;;5.65;2.70;;;3.40;86.00;;;;;;5068099;28;20365;-71
2021/04/08 07:32:31;;;;;;;6.00;2.55;;;3.50;83.90;;;;;;5053695;28;20511;-71
2021/04/08 07:35:03;;;;;;;6.05;3.08;;;3.70;85.40;;;;;;5070832;28;20074;-71
2021/04/08 07:37:34;;;;;;;5.75;2.92;;;4.00;84.80;;;;;;5067963;28;20032;-71
2021/04/08 07:40:05;;;;;;;3.30;2.08;;;4.10;84.20;;;;;;5069499;28;20054;-72
2021/04/08 07:42:33;;;;;;;6.97;2.55;;;4.30;82.90;;;;;;5071676;28;20019;-71
2021/04/08 07:45:05;;;;;;;7.53;2.58;;;4.60;81.40;;;;;;5059368;28;20346;-72
2021/04/08 07:47:34;;;;;;;4.78;2.33;;;4.90;80.20;;;;;;5069720;28;20028;-71
2021/04/08 07:50:06;;;;;;;4.60;2.58;;;5.20;81.50;;;;;;5064760;28;20024;-71
2021/04/08 07:52:34;;;;;;;4.55;2.70;;;5.40;79.50;;;;;;5064092;28;20032;-71
2021/04/08 07:55:09;;;;;;;4.28;2.47;;;5.70;79.10;;;;;;5068555;28;20028;-71
2021/04/08 07:57:55;;;;;;;7.70;3.65;;;5.90;79.30;;;;;;5064227;28;20115;-72
2021/04/08 08:00:41;;;;;;;5.10;2.78;;;6.30;80.60;;;;;;5062373;28;20477;-72
2021/04/08 08:03:28;;;;;;;7.45;3.08;;;6.50;81.70;;;;;;5054256;28;20594;-72
2021/04/08 08:06:00;;;;;;;19.92;4.20;;;6.80;80.30;;;;;;5069940;28;20408;-71
2021/04/08 08:08:44;;;;;;;6.22;2.72;;;7.10;79.60;;;;;;5067180;28;20033;-71
2021/04/08 08:11:13;;;;;;;5.10;2.88;;;7.40;77.90;;;;;;5058284;28;20025;-72
2021/04/08 08:13:48;;;;;;;5.82;2.85;;;7.60;78.30;;;;;;5062882;28;20037;-72
2021/04/08 08:16:18;;;;;;;5.80;2.38;;;7.90;75.50;;;;;;5070830;28;20033;-72
2021/04/08 08:18:45;;;;;;;8.90;2.78;;;8.20;72.00;;;;;;5072621;28;22685;-72
2021/04/08 08:21:29;;;;;;;6.03;2.35;;;8.60;69.80;;;;;;5073897;28;20499;-71
2021/04/08 08:23:57;;;;;;;6.82;2.40;;;8.80;69.50;;;;;;5065819;28;20028;-71
2021/04/08 08:26:43;;;;;;;4.13;2.33;;;9.30;69.30;;;;;;5072733;28;20040;-71
2021/04/08 08:29:09;;;;;;;6.65;2.30;;;9.60;66.50;;;;;;5071730;28;20036;-72
2021/04/08 08:31:51;;;;;;;3.38;1.90;;;9.80;66.20;;;;;;5057331;28;20202;-72
2021/04/08 08:34:36;;;;;;;8.60;2.40;;;10.30;66.80;;;;;;5053113;28;20032;-72
2021/04/08 08:37:03;;;;;;;7.45;2.75;;;10.80;63.80;;;;;;5069607;28;20089;-72
2021/04/08 08:39:38;;;;;;;3.00;1.65;;;11.10;61.70;;;;;;5071003;28;20063;-72
2021/04/08 08:42:08;;;;;;;5.55;1.98;;;11.50;59.30;;;;;;5066383;28;20024;-72
2021/04/08 08:44:35;;;;;;;2.97;1.73;;;12.10;56.30;;;;;;5069313;28;20039;-72
2021/04/08 08:47:16;;;;;;;4.63;1.80;;;12.40;57.20;;;;;;5061234;28;20158;-72
2021/04/08 08:49:43;;;;;;;10.18;2.58;;;12.60;53.40;;;;;;5068378;28;20040;-72
2021/04/08 08:52:10;;;;;;;4.60;1.70;;;13.10;55.30;;;;;;5068673;28;20040;-72
2021/04/08 08:54:43;;;;;;;4.28;1.83;;;13.00;51.40;;;;;;5068399;28;20024;-72
2021/04/08 08:57:09;;;;;;;3.00;1.75;;;13.30;52.70;;;;;;5071196;28;20408;-72
2021/04/08 08:59:35;;;;;;;13.65;2.58;;;13.50;52.80;;;;;;5071546;28;20037;-72
2021/04/08 09:02:01;;;;;;;6.72;2.15;;;14.00;51.10;;;;;;5072106;28;20032;-72
2021/04/08 09:04:28;;;;;;;3.95;1.85;;;14.30;50.50;;;;;;5072543;28;20017;-72
2021/04/08 09:06:59;;;;;;;6.38;2.00;;;15.00;49.50;;;;;;5068041;28;20125;-72
2021/04/08 09:09:28;;;;;;;4.50;2.13;;;18.50;43.50;;;;;;5064405;28;20032;-72
2021/04/08 09:11:54;;;;;;;4.38;2.67;;;20.50;38.40;;;;;;5061197;28;20127;-72
2021/04/08 09:14:21;;;;;;;4.10;2.25;;;21.80;36.70;;;;;;5070584;28;20032;-72
2021/04/08 09:16:51;;;;;;;5.35;2.20;;;22.30;34.50;;;;;;5071820;28;20025;-72
2021/04/08 09:19:33;;;;;;;3.63;2.08;;;23.00;34.70;;;;;;5064080;28;20530;-73
2021/04/08 09:22:08;;;;;;;48.38;5.95;;;23.50;33.00;;;;;;5069309;28;20020;-74
2021/04/08 09:24:36;;;;;;;7.95;2.53;;;23.40;34.00;;;;;;5068905;28;20025;-72
2021/04/08 09:27:03;;;;;;;3.35;1.98;;;23.20;34.30;;;;;;5067762;28;20056;-72
2021/04/08 09:29:35;;;;;;;3.97;2.85;;;22.60;32.50;;;;;;5072394;28;20032;-74
2021/04/08 09:32:45;;;;;;;2.70;2.10;;;22.80;33.30;;;;;;5075162;28;20048;-74
2021/04/08 09:35:14;;;;;;;3.10;2.30;;;23.30;33.20;;;;;;5059476;28;20029;-74
2021/04/08 09:37:48;;;;;;;4.82;2.90;;;22.80;33.00;;;;;;5074762;28;20508;-74
2021/04/08 09:40:24;;;;;;;4.80;2.15;;;22.30;34.30;;;;;;5067264;28;20036;-74
2021/04/08 09:43:01;;;;;;;3.47;2.00;;;23.00;34.60;;;;;;5066965;28;20051;-73
2021/04/08 09:45:27;;;;;;;3.30;2.00;;;22.90;32.70;;;;;;5073681;28;20556;-73
2021/04/08 09:48:13;;;;;;;3.75;2.53;;;23.10;33.60;;;;;;5075053;28;20716;-73
2021/04/08 09:50:44;;;;;;;3.78;2.15;;;22.30;34.90;;;;;;5072812;28;20025;-73
2021/04/08 09:53:10;;;;;;;;;;;23.00;35.70;;;;;;5075717;28;20031;-73
2021/04/08 09:55:35;;;;;;;5.50;2.58;;;23.50;33.10;;;;;;5074835;28;19912;-73
2021/04/08 09:58:03;;;;;;;3.20;2.05;;;24.00;33.00;;;;;;5074437;28;20074;-73
2021/04/08 10:00:29;;;;;;;2.78;2.35;;;24.10;32.20;;;;;;5072777;28;20077;-73
2021/04/08 10:03:00;;;;;;;4.72;2.25;;;24.20;31.70;;;;;;5064930;28;20013;-74
2021/04/08 10:05:31;;;;;;;3.25;2.17;;;23.80;31.30;;;;;;5072363;28;20032;-73
2021/04/08 10:07:58;;;;;;;3.50;2.28;;;24.50;33.50;;;;;;5074818;28;20028;-73
2021/04/08 10:10:36;;;;;;;5.55;2.55;;;24.60;33.00;;;;;;5074646;28;20033;-73
2021/04/08 10:13:32;;;;;;;2.88;2.50;;;25.40;30.30;;;;;;5074589;28;20032;-73
2021/04/08 10:15:59;;;;;;;6.55;2.15;;;26.70;31.10;;;;;;5061971;28;20473;-74
2021/04/08 10:18:29;;;;;;;3.03;2.72;;;26.40;30.50;;;;;;5066738;28;20025;-74
2021/04/08 10:21:00;;;;;;;3.75;2.25;;;25.80;31.00;;;;;;5067006;28;20032;-74
2021/04/08 10:23:39;;;;;;;4.50;2.20;;;27.10;31.00;;;;;;5073516;28;20072;-74
2021/04/08 10:26:20;;;;;;;3.25;2.42;;;27.80;29.20;;;;;;5073789;28;20033;-74
2021/04/08 10:28:54;;;;;;;7.57;2.88;;;27.40;30.30;;;;;;5068303;28;20104;-74
2021/04/08 10:31:24;;;;;;;6.20;2.72;;;26.80;30.60;;;;;;5075127;28;20025;-74
2021/04/08 10:33:56;;;;;;;6.47;2.45;;;27.60;31.30;;;;;;5073332;28;20484;-74
2021/04/08 10:36:37;;;;;;;3.25;2.35;;;27.10;30.00;;;;;;5065782;28;20090;-74
2021/04/08 10:39:36;;;;;;;5.65;2.63;;;27.70;30.00;;;;;;5072672;28;20031;-74
2021/04/08 10:42:11;;;;;;;2.67;2.42;;;27.10;29.80;;;;;;5011055;28;20052;-74
2021/04/08 10:44:43;;;;;;;4.13;2.72;;;26.80;31.50;;;;;;5011951;28;20100;-74
2021/04/08 10:47:14;;;;;;;5.28;3.17;;;27.80;28.70;;;;;;5010607;28;20042;-75
2021/04/08 10:49:50;;;;;;;3.80;2.80;;;28.20;29.70;;;;;;5012255;28;20032;-75
2021/04/08 10:52:33;;;;;;;5.07;2.75;;;28.60;30.90;;;;;;5004130;28;20037;-75
2021/04/08 10:55:12;;;;;;;8.48;2.85;;;28.30;28.50;;;;;;5011787;28;20034;-75
2021/04/08 10:57:41;;;;;;;6.78;2.92;;;28.00;29.40;;;;;;5005482;28;20031;-75
2021/04/08 11:00:11;;;;;;;3.40;2.80;;;28.80;29.70;;;;;;5010921;28;20073;-75
2021/04/08 11:02:41;;;;;;;3.80;2.90;;;30.30;28.50;;;;;;5010070;28;20034;-75
2021/04/08 11:05:21;;;;;;;4.30;3.20;;;29.90;28.90;;;;;;4996058;28;20188;-75
2021/04/08 11:07:58;;;;;;;2.88;2.67;;;30.40;27.50;;;;;;5004220;28;20033;-75
2021/04/08 11:10:31;;;;;;;3.38;3.00;;;30.30;27.40;;;;;;5006212;28;20029;-75
2021/04/08 11:13:00;;;;;;;4.05;3.10;;;30.90;27.50;;;;;;4995619;28;20113;-75
2021/04/08 11:15:32;;;;;;;4.13;3.58;;;30.90;27.60;;;;;;5012321;28;20021;-75
2021/04/08 11:18:13;;;;;;;5.53;3.22;;;31.10;27.70;;;;;;5046618;28;20037;-76
2021/04/08 11:20:44;;;;;;;3.97;3.15;;;31.70;26.80;;;;;;5059492;28;20151;-74
2021/04/08 11:23:16;;;;;;;8.10;3.45;;;31.70;28.60;;;;;;5071018;28;20480;-76
2021/04/08 11:25:44;;;;;;;7.75;3.88;;;31.00;28.20;;;;;;5060976;28;20025;-74
2021/04/08 11:28:12;;;;;;;4.07;3.00;;;30.60;29.00;;;;;;5063417;28;20052;-74
2021/04/08 11:30:45;;;;;;;3.53;3.05;;;31.70;27.80;;;;;;5068329;28;20051;-76
2021/04/08 11:33:19;;;;;;;4.60;3.35;;;31.00;27.50;;;;;;5059998;28;20032;-75
2021/04/08 11:35:46;;;;;;;6.90;3.60;;;31.90;27.30;;;;;;5070289;28;20020;-75
2021/04/08 11:38:23;;;;;;;5.90;3.28;;;30.50;27.50;;;;;;5069509;28;20029;-75
2021/04/08 11:41:19;;;;;;;5.55;3.38;;;31.80;28.00;;;;;;5068234;28;20024;-75
2021/04/08 11:43:51;;;;;;;5.63;4.25;;;33.60;26.80;;;;;;5045183;28;20025;-75
2021/04/08 11:46:24;;;;;;;9.40;3.95;;;31.90;28.70;;;;;;5069553;28;20016;-75
2021/04/08 11:48:50;;;;;;;6.13;3.30;;;33.30;26.20;;;;;;5063766;28;20085;-75
2021/04/08 11:51:20;;;;;;;7.20;4.57;;;33.10;27.00;;;;;;5070100;28;20035;-75
2021/04/08 11:53:46;;;;;;;7.30;3.92;;;34.80;27.10;;;;;;5064176;28;20032;-75
2021/04/08 11:56:33;;;;;;;7.38;3.90;;;33.90;26.90;;;;;;5057478;28;20501;-75
2021/04/08 11:59:21;;;;;;;4.30;3.95;;;32.60;27.20;;;;;;5054089;28;20118;-75
2021/04/08 12:01:49;;;;;;;5.20;3.70;;;32.90;27.90;;;;;;5055871;28;20481;-75
2021/04/08 12:04:19;;;;;;;4.90;3.70;;;33.20;26.90;;;;;;5066055;28;20025;-75
2021/04/08 12:06:52;;;;;;;;;;;32.80;27.90;;;;;;5067952;28;20027;-75
2021/04/08 12:09:33;;;;;;;4.88;4.18;;;32.10;27.60;;;;;;5053790;28;20417;-75
2021/04/08 12:11:59;;;;;;;11.52;3.95;;;32.20;27.30;;;;;;5068929;28;20051;-75
2021/04/08 12:14:25;;;;;;;6.30;4.28;;;33.10;26.10;;;;;;5065769;28;20016;-75
2021/04/08 12:17:07;;;;;;;4.43;4.03;;;32.70;26.70;;;;;;5067060;28;20029;-75
2021/04/08 12:19:34;;;;;;;6.53;4.30;;;31.40;28.10;;;;;;5067410;28;20174;-75
2021/04/08 12:22:06;;;;;;;4.72;4.28;;;32.50;28.40;;;;;;5068822;28;20021;-75
2021/04/08 12:24:32;;;;;;;7.55;5.05;;;32.20;27.50;;;;;;5071363;28;20017;-75
2021/04/08 12:26:58;;;;;;;5.32;4.10;;;33.20;28.10;;;;;;5072273;28;20082;-75
2021/04/08 12:29:24;;;;;;;6.50;4.80;;;34.50;27.10;;;;;;5069370;28;20036;-75
2021/04/08 12:31:56;;;;;;;7.55;4.60;;;33.40;28.50;;;;;;5072332;28;20048;-75
2021/04/08 12:34:22;;;;;;;4.95;4.45;;;34.20;27.10;;;;;;5071238;28;20373;-75
2021/04/08 12:36:49;;;;;;;6.03;5.20;;;32.10;28.30;;;;;;5071847;28;20056;-75
2021/04/08 12:39:15;;;;;;;5.85;4.60;;;31.90;27.90;;;;;;5071102;28;20098;-75
2021/04/08 12:41:40;;;;;;;7.07;4.22;;;32.60;27.00;;;;;;5071883;28;20476;-75
2021/04/08 12:44:06;;;;;;;5.05;4.35;;;32.90;27.50;;;;;;5070721;28;20021;-75
2021/04/08 12:46:33;;;;;;;5.93;4.88;;;32.80;26.10;;;;;;5072406;28;20028;-75
2021/04/08 12:48:58;;;;;;;6.20;4.95;;;32.80;26.60;;;;;;5071044;28;20477;-75
2021/04/08 12:51:25;;;;;;;6.63;4.90;;;33.50;27.70;;;;;;5071173;28;20024;-75
2021/04/08 12:53:50;;;;;;;9.02;6.22;;;33.00;28.40;;;;;;5071410;28;20085;-75
2021/04/08 12:56:16;;;;;;;8.65;6.70;;;33.30;28.90;;;;;;5068362;28;20111;-75
2021/04/08 12:58:42;;;;;;;8.95;5.40;;;32.40;28.60;;;;;;5066710;28;20036;-75
2021/04/08 13:01:08;;;;;;;6.78;5.18;;;32.00;28.00;;;;;;5061379;28;20036;-75